CheckWX is a tool to help pilots better visualize weather data.  It is not intended as a substitute for an official pre-flight weather briefing.

14:38:31 UTC

BGKK METAR
Kulusuk Airport
Kulusuk, Greenland
Current

49 mins ago

BGKK 261350Z 07036G51KT 9999 -RA BKN035 05/M01 Q1003
Observed
Apr-26 @ 13:50 UTC
Wind
  • 070° at 36 KTS
  • Gusting to 51 KTS
Visibility
10,000+ meters
Flight Rules
VFR
Conditions
Light Rain
Cloud Levels
  • Broken at 3,500' AGL
Temperature
C / 41°F
Dewpoint
-1°C / 30°F
Humidity
66%
Altimeter
29.62" Hg
Pressure
1002.92 hPa
Previous

1 hour ago

BGKK 261320Z 07037G52KT 9999 -RA BKN040 06/M01 Q1002
Observed
Apr-26 @ 13:20 UTC
Wind
  • 070° at 37 KTS
  • Gusting to 52 KTS
Visibility
10,000+ meters
Flight Rules
VFR
Conditions
Light Rain
Cloud Levels
  • Broken at 4,000' AGL
Temperature
C / 43°F
Dewpoint
-1°C / 30°F
Humidity
61%
Altimeter
29.59" Hg
Pressure
1001.92 hPa
Previous

3 hours ago

BGKK 261150Z 07035G51KT 9999 -SHRA BKN052 08/M02 Q1002
Observed
Apr-26 @ 11:50 UTC
Wind
  • 070° at 35 KTS
  • Gusting to 51 KTS
Visibility
10,000+ meters
Flight Rules
VFR
Conditions
Light Rain
Cloud Levels
  • Broken at 5,200' AGL
Temperature
C / 46°F
Dewpoint
-2°C / 28°F
Humidity
50%
Altimeter
29.59" Hg
Pressure
1001.92 hPa